Carbonton, North Carolina
Current Conditions -  °F | °C
As of 11:15 PM on Tuesday 27 Jan 2015 (Local Time) from KTTA Reporting Station
Clear Clear  
Wind Chill: -2°   Ceiling: Unl
Heat Index:   Visibility: 10mi
Dew Point: -14°   Wind: 6mph
Humidity: 33%   Direction: 350°N
Pressure: 29.99"   Gusts: NA
Location:  35.493°N, 79.1765°W
Report Text: KTTA 280415Z AUTO 35005KT 10SM CLR 01/M14 A2999 RMK AO2 T00091137
Loading
Personal Weather Stations






























Interactive Weather Map New forecast layout! Learn more

10-Day Weather Forecast

Advertisements
Track Severe Weather on mobile